Time;durP1;ratioP1;P1;durP2;ratioP2;P2;SDS_P1;SDS_P2;PMS_P1;PMS_P2;Temp;Humidity;BMP_temperature;BMP_pressure;BME280_temperature;BME280_humidity;BME280_pressure;Samples;Min_cycle;Max_cycle;Signal;HPM_P1;HPM_P2
2024/01/04 00:00:28;;;;;;;209.90;67.07;;;;;;;8.27;nan;99233.56;5064784;28;20140;-70
2024/01/04 00:02:57;;;;;;;207.23;66.28;;;;;;;8.27;nan;99237.03;5057599;28;20043;-68
2024/01/04 00:05:27;;;;;;;198.98;63.53;;;;;;;8.43;nan;99244.13;5080080;28;20052;-68
2024/01/04 00:07:56;;;;;;;176.70;62.40;;;;;;;8.33;nan;99256.66;5080953;28;20051;-68
2024/01/04 00:10:25;;;;;;;201.27;63.13;;;;;;;8.45;nan;99260.66;5084426;28;20044;-68
2024/01/04 00:12:55;;;;;;;204.68;65.20;;;;;;;8.37;nan;99269.38;5057099;28;20050;-69
2024/01/04 00:15:24;;;;;;;197.30;62.50;;;;;;;8.37;nan;99268.53;5078888;28;20399;-69
2024/01/04 00:17:53;;;;;;;197.38;64.30;;;;;;;8.37;nan;99268.53;5075874;28;20059;-69
2024/01/04 00:20:24;;;;;;;209.27;65.72;;;;;;;8.60;nan;99263.44;5082924;28;20052;-69
2024/01/04 00:22:54;;;;;;;203.88;63.75;;;;;;;8.27;nan;99267.88;5084312;28;20151;-69
2024/01/04 00:25:23;;;;;;;198.88;64.00;;;;;;;8.34;nan;99259.16;5067809;28;20083;-69
2024/01/04 00:27:53;;;;;;;192.77;64.20;;;;;;;8.41;nan;99265.41;5081051;28;20127;-69
2024/01/04 00:30:22;;;;;;;196.85;62.65;;;;;;;8.40;nan;99276.16;5040642;28;20087;-69
2024/01/04 00:32:52;;;;;;;191.52;60.88;;;;;;;8.38;nan;99276.31;5044272;28;20048;-68
2024/01/04 00:35:22;;;;;;;193.65;61.70;;;;;;;8.36;nan;99282.75;5066001;28;20052;-68
2024/01/04 00:37:52;;;;;;;192.40;63.05;;;;;;;8.38;nan;99281.59;5079202;28;20052;-69
2024/01/04 00:40:22;;;;;;;191.93;63.90;;;;;;;8.48;nan;99291.97;5045475;28;20498;-68
2024/01/04 00:42:51;;;;;;;194.82;60.88;;;;;;;8.52;nan;99301.22;5060847;28;20048;-67
2024/01/04 00:45:20;;;;;;;184.63;63.15;;;;;;;8.45;nan;99292.31;5071794;28;20126;-68
2024/01/04 00:47:50;;;;;;;179.85;58.47;;;;;;;8.38;nan;99291.31;5081564;28;20056;-69
2024/01/04 00:50:19;;;;;;;184.50;60.13;;;;;;;8.37;nan;99294.94;5069019;28;20443;-70
2024/01/04 00:52:48;;;;;;;176.27;60.13;;;;;;;8.45;nan;99308.97;5088471;28;20117;-69
2024/01/04 00:55:27;;;;;;;187.90;63.03;;;;;;;8.43;nan;99313.59;5065598;28;20535;-69
2024/01/04 00:57:57;;;;;;;189.27;59.63;;;;;;;8.43;nan;99310.13;5055731;28;20036;-69
2024/01/04 01:00:26;;;;;;;180.00;58.45;;;;;;;8.46;nan;99315.91;5067171;28;20487;-68
2024/01/04 01:02:56;;;;;;;172.25;59.47;;;;;;;8.47;nan;99324.63;5080114;28;20060;-69
2024/01/04 01:05:25;;;;;;;163.70;55.63;;;;;;;8.44;nan;99322.34;5055923;28;20052;-69
2024/01/04 01:07:55;;;;;;;174.27;56.05;;;;;;;8.36;nan;99323.16;5086726;28;20499;-69
2024/01/04 01:10:26;;;;;;;174.15;55.67;;;;;;;8.26;nan;99329.53;5069347;28;20056;-69
2024/01/04 01:12:56;;;;;;;156.65;54.00;;;;;;;8.44;nan;99338.19;5059259;28;20044;-70
2024/01/04 01:15:25;;;;;;;160.73;55.47;;;;;;;8.34;nan;99345.41;5082994;28;20046;-69
2024/01/04 01:17:54;;;;;;;162.88;58.30;;;;;;;8.37;nan;99340.63;5087248;28;20097;-69
2024/01/04 01:20:25;;;;;;;184.60;57.33;;;;;;;8.38;nan;99336.19;5077057;28;20741;-68
2024/01/04 01:22:54;;;;;;;182.23;61.10;;;;;;;8.45;nan;99342.47;5081203;28;20135;-69
2024/01/04 01:25:24;;;;;;;187.18;61.70;;;;;;;8.43;nan;99345.25;5073355;28;20534;-68
2024/01/04 01:27:53;;;;;;;175.88;58.97;;;;;;;8.44;nan;99348.72;5079950;28;20513;-69
2024/01/04 01:30:22;;;;;;;190.05;65.75;;;;;;;8.50;nan;99358.63;5072489;28;20481;-69
2024/01/04 01:32:52;;;;;;;168.75;57.17;;;;;;;8.49;nan;99367.56;5078750;28;20067;-69
2024/01/04 01:35:22;;;;;;;169.50;55.10;;;;;;;8.33;nan;99363.06;5047952;28;20055;-69
2024/01/04 01:37:51;;;;;;;169.35;58.47;;;;;;;8.32;nan;99369.31;5065188;28;20058;-69
2024/01/04 01:40:22;;;;;;;183.10;60.10;;;;;;;8.46;nan;99379.25;5067646;28;20064;-70
2024/01/04 01:42:52;;;;;;;190.65;60.17;;;;;;;8.34;nan;99366.53;5068385;28;20044;-69
2024/01/04 01:45:22;;;;;;;194.35;63.70;;;;;;;8.30;nan;99373.94;5084420;28;20056;-69
2024/01/04 01:47:51;;;;;;;207.40;68.82;;;;;;;8.27;nan;99379.53;5068399;28;20051;-69
2024/01/04 01:50:24;;;;;;;184.05;61.83;;;;;;;8.25;nan;99370.91;5067043;28;20052;-69
2024/01/04 01:52:54;;;;;;;211.32;64.68;;;;;;;8.35;nan;99361.09;5085400;28;20157;-69
2024/01/04 01:55:24;;;;;;;168.35;56.05;;;;;;;8.15;nan;99359.69;5067901;28;20076;-69
2024/01/04 01:57:55;;;;;;;192.75;61.78;;;;;;;8.26;nan;99364.66;5077156;28;20427;-69
2024/01/04 02:00:25;;;;;;;176.38;57.65;;;;;;;8.17;nan;99376.19;5073692;28;20044;-69
2024/01/04 02:02:57;;;;;;;174.18;58.00;;;;;;;8.17;nan;99370.06;5095538;28;20048;-69
2024/01/04 02:05:28;;;;;;;172.68;58.38;;;;;;;8.24;nan;99371.91;5074468;28;20083;-69
2024/01/04 02:07:59;;;;;;;181.35;59.72;;;;;;;8.40;nan;99379.09;5088340;28;20042;-70
2024/01/04 02:10:28;;;;;;;179.15;61.38;;;;;;;8.44;nan;99377.78;5094285;28;20048;-68
2024/01/04 02:12:57;;;;;;;189.48;61.63;;;;;;;8.45;nan;99377.59;5061321;28;20056;-68
2024/01/04 02:15:27;;;;;;;210.00;64.07;;;;;;;8.62;nan;99380.28;5091159;28;20040;-69
2024/01/04 02:17:57;;;;;;;179.77;61.28;;;;;;;8.36;nan;99388.31;5083335;28;20539;-69
2024/01/04 02:20:26;;;;;;;187.82;60.95;;;;;;;8.33;nan;99372.78;5079057;28;20066;-69
2024/01/04 02:22:55;;;;;;;185.88;59.30;;;;;;;8.33;nan;99378.06;5068977;28;20040;-69
2024/01/04 02:25:26;;;;;;;197.98;61.50;;;;;;;8.31;nan;99386.16;5084595;28;20058;-69
2024/01/04 02:27:56;;;;;;;188.75;62.10;;;;;;;8.38;nan;99381.88;5071348;28;20537;-69
2024/01/04 02:30:25;;;;;;;171.10;57.88;;;;;;;8.52;nan;99390.97;5073053;28;20108;-69
2024/01/04 02:32:55;;;;;;;191.77;62.53;;;;;;;8.40;nan;99402.84;5097261;28;20052;-69
2024/01/04 02:35:25;;;;;;;181.48;61.58;;;;;;;8.31;nan;99396.72;5116581;27;20407;-69
2024/01/04 02:37:55;;;;;;;182.18;60.17;;;;;;;8.45;nan;99398.69;5090815;28;20056;-69
2024/01/04 02:40:25;;;;;;;192.27;64.43;;;;;;;8.45;nan;99403.19;5089914;28;20044;-68
2024/01/04 02:42:55;;;;;;;193.65;61.20;;;;;;;8.37;nan;99401.31;5092124;28;20039;-70
2024/01/04 02:45:24;;;;;;;196.98;61.17;;;;;;;8.28;nan;99398.78;5090924;28;20101;-71
2024/01/04 02:47:53;;;;;;;195.15;63.28;;;;;;;8.10;nan;99415.56;5088568;28;20050;-70
2024/01/04 02:50:23;;;;;;;200.20;65.15;;;;;;;8.13;nan;99409.97;5091489;27;20044;-70
2024/01/04 02:52:52;;;;;;;196.52;63.92;;;;;;;8.39;nan;99422.28;5087697;28;20113;-70
2024/01/04 02:55:22;;;;;;;189.27;63.67;;;;;;;8.31;nan;99423.09;5082615;28;20396;-70
2024/01/04 02:57:52;;;;;;;187.88;62.75;;;;;;;8.47;nan;99428.41;5083099;28;20494;-70
2024/01/04 03:00:22;;;;;;;187.30;63.35;;;;;;;8.40;nan;99429.22;5081672;28;20051;-71
2024/01/04 03:02:51;;;;;;;193.45;64.15;;;;;;;8.47;nan;99435.50;5084504;28;20523;-70
2024/01/04 03:05:21;;;;;;;208.55;63.65;;;;;;;8.45;nan;99430.38;5088293;28;20040;-70
2024/01/04 03:07:50;;;;;;;183.32;60.45;;;;;;;8.41;nan;99431.69;5079960;28;20048;-70
2024/01/04 03:10:19;;;;;;;194.95;62.60;;;;;;;8.29;nan;99440.03;5074875;28;20054;-70
2024/01/04 03:12:49;;;;;;;190.93;62.00;;;;;;;8.24;nan;99443.16;5079400;28;20133;-70
2024/01/04 03:15:18;;;;;;;211.80;64.05;;;;;;;8.17;nan;99459.78;5085470;28;20083;-70
2024/01/04 03:17:49;;;;;;;201.75;64.78;;;;;;;8.10;nan;99452.50;5078693;28;20048;-70
2024/01/04 03:20:19;;;;;;;188.80;62.65;;;;;;;8.46;nan;99454.97;5077855;28;20059;-70
2024/01/04 03:22:49;;;;;;;200.38;62.58;;;;;;;8.59;nan;99465.88;5085275;28;20051;-71
2024/01/04 03:25:19;;;;;;;200.30;67.10;;;;;;;8.61;nan;99471.84;5072033;28;20048;-70
2024/01/04 03:27:48;;;;;;;196.25;65.25;;;;;;;8.49;nan;99483.69;5076190;28;20047;-70
2024/01/04 03:30:17;;;;;;;205.43;64.82;;;;;;;8.22;nan;99482.06;5095023;28;20635;-70
2024/01/04 03:32:47;;;;;;;195.90;62.78;;;;;;;8.30;nan;99486.59;5079617;28;20051;-71
2024/01/04 03:35:17;;;;;;;207.93;65.22;;;;;;;8.56;nan;99487.34;5080364;28;20138;-71
2024/01/04 03:37:46;;;;;;;209.70;65.53;;;;;;;8.34;nan;99485.28;5059295;28;20142;-71
2024/01/04 03:40:16;;;;;;;195.20;65.40;;;;;;;8.32;nan;99493.34;5063657;28;20101;-71
2024/01/04 03:42:45;;;;;;;195.70;61.60;;;;;;;8.38;nan;99500.63;5074610;28;20059;-71
2024/01/04 03:45:14;;;;;;;182.57;59.88;;;;;;;8.57;nan;99503.03;5079517;28;20159;-70
2024/01/04 03:47:44;;;;;;;181.48;59.08;;;;;;;8.71;nan;99503.41;5084318;28;20070;-70
2024/01/04 03:50:13;;;;;;;194.55;61.53;;;;;;;8.60;nan;99499.22;5083233;28;20044;-70
2024/01/04 03:52:43;;;;;;;191.43;63.55;;;;;;;8.71;nan;99500.75;5084957;28;20138;-70
2024/01/04 03:55:15;;;;;;;203.73;67.10;;;;;;;8.80;nan;99513.81;5081977;28;20056;-70
2024/01/04 03:57:44;;;;;;;198.55;60.92;;;;;;;8.80;nan;99510.34;5074993;28;20056;-70
2024/01/04 04:00:14;;;;;;;191.02;62.60;;;;;;;9.01;nan;99519.47;5077667;28;20044;-70
2024/01/04 04:02:43;;;;;;;178.85;59.65;;;;;;;9.02;nan;99523.78;5078906;28;20058;-70
2024/01/04 04:05:13;;;;;;;178.80;62.55;;;;;;;8.77;nan;99534.44;5073598;28;20114;-70
2024/01/04 04:07:43;;;;;;;185.77;61.53;;;;;;;8.69;nan;99529.13;5064677;28;20052;-71
2024/01/04 04:10:14;;;;;;;190.82;62.97;;;;;;;8.65;nan;99525.97;5079515;28;20047;-71
2024/01/04 04:12:44;;;;;;;192.93;63.15;;;;;;;8.82;nan;99535.59;5082524;28;20079;-70
2024/01/04 04:15:14;;;;;;;176.27;60.88;;;;;;;8.91;nan;99532.00;5080283;28;20166;-70
2024/01/04 04:17:43;;;;;;;171.43;58.53;;;;;;;8.75;nan;99536.41;5081147;28;20587;-70
2024/01/04 04:20:13;;;;;;;188.02;61.38;;;;;;;8.67;nan;99542.50;5079382;28;20134;-70
2024/01/04 04:22:43;;;;;;;177.15;58.70;;;;;;;8.84;nan;99536.28;5080227;28;20052;-70
2024/01/04 04:25:12;;;;;;;188.77;63.97;;;;;;;8.86;nan;99544.03;5073895;28;20049;-71
2024/01/04 04:27:42;;;;;;;200.70;65.97;;;;;;;8.89;nan;99534.00;5085872;28;20341;-71
2024/01/04 04:30:12;;;;;;;214.50;68.57;;;;;;;9.19;nan;99539.66;5074204;28;20047;-71
2024/01/04 04:32:41;;;;;;;205.18;67.50;;;;;;;9.11;nan;99539.66;5073229;28;20143;-70
2024/01/04 04:35:11;;;;;;;218.27;69.82;;;;;;;9.13;nan;99540.28;5081058;28;20059;-70
2024/01/04 04:37:40;;;;;;;199.38;68.22;;;;;;;9.15;nan;99547.09;5068258;28;20036;-70
2024/01/04 04:40:11;;;;;;;193.23;66.68;;;;;;;9.23;nan;99551.56;5071361;28;20483;-70
2024/01/04 04:42:42;;;;;;;;;;;;;;;9.19;nan;99550.22;5086857;28;20048;-70
2024/01/04 04:45:12;;;;;;;168.98;57.15;;;;;;;9.33;nan;99562.81;5078561;28;20011;-70
2024/01/04 04:47:41;;;;;;;175.80;59.70;;;;;;;9.07;nan;99554.19;5087656;28;20044;-69
2024/01/04 04:50:10;;;;;;;176.30;60.25;;;;;;;9.09;nan;99554.81;5074621;28;20389;-71
2024/01/04 04:52:40;;;;;;;176.55;61.85;;;;;;;9.17;nan;99560.94;5072237;28;20064;-70
2024/01/04 04:55:09;;;;;;;177.50;60.78;;;;;;;9.13;nan;99562.25;5079621;28;20059;-70
2024/01/04 04:57:41;;;;;;;188.45;65.35;;;;;;;9.25;nan;99562.81;5072065;28;21537;-69
2024/01/04 05:00:11;;;;;;;170.65;60.58;;;;;;;9.17;nan;99568.88;5083993;28;20119;-69
2024/01/04 05:02:40;;;;;;;191.00;62.40;;;;;;;9.10;nan;99562.59;5089018;28;20044;-69
2024/01/04 05:05:09;;;;;;;191.75;65.22;;;;;;;9.21;nan;99572.00;5084000;28;20044;-69
2024/01/04 05:07:39;;;;;;;184.55;63.67;;;;;;;9.38;nan;99569.22;5085475;28;20395;-69
2024/01/04 05:10:08;;;;;;;195.65;67.88;;;;;;;9.47;nan;99570.06;5086822;28;20043;-69
2024/01/04 05:12:38;;;;;;;198.57;67.10;;;;;;;9.30;nan;99560.47;5086306;28;20113;-70
2024/01/04 05:15:08;;;;;;;191.27;69.28;;;;;;;9.45;nan;99561.50;5087178;28;20101;-69
2024/01/04 05:17:37;;;;;;;184.77;67.00;;;;;;;9.55;nan;99556.06;5091909;28;20109;-70
2024/01/04 05:20:07;;;;;;;204.00;65.93;;;;;;;9.29;nan;99546.44;5072519;28;20067;-69
2024/01/04 05:22:37;;;;;;;193.32;66.00;;;;;;;9.63;nan;99546.28;5088385;28;20040;-70
2024/01/04 05:25:07;;;;;;;174.27;62.25;;;;;;;9.67;nan;99544.16;5084886;28;20044;-70
2024/01/04 05:27:36;;;;;;;157.43;57.92;;;;;;;9.46;nan;99544.66;5086653;28;20044;-70
2024/01/04 05:30:08;;;;;;;170.70;59.17;;;;;;;9.51;nan;99539.69;5081918;28;20522;-70
2024/01/04 05:32:38;;;;;;;153.52;55.50;;;;;;;9.52;nan;99554.53;5084647;28;20129;-71
2024/01/04 05:35:08;;;;;;;155.05;55.20;;;;;;;9.75;nan;99541.47;5068884;28;20051;-69
2024/01/04 05:37:37;;;;;;;168.82;58.28;;;;;;;9.39;nan;99535.69;5065610;28;20600;-69
2024/01/04 05:40:07;;;;;;;174.13;58.33;;;;;;;9.33;nan;99534.56;5081855;28;20043;-69
2024/01/04 05:42:37;;;;;;;178.82;62.17;;;;;;;9.30;nan;99539.31;5078103;28;20141;-70
2024/01/04 05:45:07;;;;;;;194.00;63.17;;;;;;;9.40;nan;99547.94;5082011;28;20125;-68
2024/01/04 05:47:37;;;;;;;159.65;58.95;;;;;;;9.24;nan;99553.22;5083164;28;20561;-69
2024/01/04 05:50:07;;;;;;;169.57;56.80;;;;;;;9.52;nan;99549.25;5080397;28;20048;-68
2024/01/04 05:52:38;;;;;;;165.00;56.42;;;;;;;9.64;nan;99547.13;5070960;28;20048;-68
2024/01/04 05:55:08;;;;;;;170.43;57.22;;;;;;;9.52;nan;99546.59;5083869;28;20058;-68
2024/01/04 05:57:37;;;;;;;171.23;60.35;;;;;;;9.55;nan;99538.38;5090717;28;20067;-70
2024/01/04 06:00:07;;;;;;;157.70;56.50;;;;;;;9.40;nan;99542.66;5087944;28;20111;-70
2024/01/04 06:02:37;;;;;;;172.25;59.22;;;;;;;9.51;nan;99542.34;5089723;28;20040;-71
2024/01/04 06:05:07;;;;;;;158.35;57.47;;;;;;;9.47;nan;99535.69;5093142;28;20096;-70
2024/01/04 06:07:37;;;;;;;163.02;54.65;;;;;;;9.45;nan;99529.75;5086347;28;20073;-71
2024/01/04 06:10:07;;;;;;;160.73;55.75;;;;;;;9.50;nan;99538.03;5092633;27;20044;-70
2024/01/04 06:12:36;;;;;;;165.45;58.75;;;;;;;9.84;nan;99529.91;5070171;28;20075;-69
2024/01/04 06:15:07;;;;;;;176.32;61.58;;;;;;;9.73;nan;99527.63;5078764;28;20056;-72
2024/01/04 06:17:37;;;;;;;169.90;57.45;;;;;;;9.93;nan;99524.44;5081696;28;20817;-70
2024/01/04 06:20:10;;;;;;;164.57;57.75;;;;;;;10.10;nan;99516.44;5081580;28;20090;-70
2024/01/04 06:22:39;;;;;;;161.68;55.63;;;;;;;9.95;nan;99505.75;5074884;28;20052;-71
2024/01/04 06:25:10;;;;;;;165.48;57.47;;;;;;;10.01;nan;99507.72;5088029;28;20667;-69
2024/01/04 06:27:39;;;;;;;171.20;59.15;;;;;;;10.03;nan;99500.44;5080241;28;20603;-70
2024/01/04 06:30:09;;;;;;;152.48;55.05;;;;;;;10.20;nan;99496.78;5096506;27;20380;-69
2024/01/04 06:32:41;;;;;;;166.27;57.53;;;;;;;10.26;nan;99484.69;5087565;28;20546;-70
2024/01/04 06:35:11;;;;;;;163.07;59.97;;;;;;;10.52;nan;99479.94;5078823;28;20051;-68
2024/01/04 06:37:41;;;;;;;158.35;56.92;;;;;;;10.54;nan;99475.28;5087750;28;20516;-68
2024/01/04 06:40:11;;;;;;;158.50;55.78;;;;;;;10.68;nan;99471.91;5092346;27;20040;-69
2024/01/04 06:42:42;;;;;;;154.93;57.45;;;;;;;10.78;nan;99471.69;5080905;28;20549;-68
2024/01/04 06:45:11;;;;;;;160.73;56.65;;;;;;;10.66;nan;99459.84;5072654;28;20052;-69
2024/01/04 06:47:41;;;;;;;146.45;54.10;;;;;;;10.88;nan;99460.88;5083018;28;20135;-69
2024/01/04 06:50:11;;;;;;;147.15;55.67;;;;;;;10.69;nan;99464.78;5084376;28;20044;-69
2024/01/04 06:52:45;;;;;;;151.43;55.38;;;;;;;10.14;nan;99465.66;5077141;28;20044;-69
2024/01/04 06:55:16;;;;;;;151.25;55.05;;;;;;;10.69;nan;99448.91;5079490;28;20044;-69
2024/01/04 06:57:45;;;;;;;151.15;55.78;;;;;;;10.79;nan;99452.97;5083167;28;20075;-72
2024/01/04 07:00:15;;;;;;;154.20;55.70;;;;;;;10.92;nan;99440.97;5082833;28;20052;-66
2024/01/04 07:02:44;;;;;;;151.93;55.70;;;;;;;10.96;nan;99447.56;5083839;28;20048;-69
2024/01/04 07:05:14;;;;;;;148.07;55.10;;;;;;;10.87;nan;99448.63;5080381;28;20048;-67
2024/01/04 07:07:44;;;;;;;144.82;54.20;;;;;;;10.73;nan;99432.47;5065793;28;20045;-70
2024/01/04 07:10:13;;;;;;;142.88;54.45;;;;;;;10.78;nan;99424.81;5077922;28;20485;-69
2024/01/04 07:12:43;;;;;;;146.75;53.38;;;;;;;10.60;nan;99418.16;5081781;28;20152;-70
2024/01/04 07:15:13;;;;;;;138.23;53.53;;;;;;;10.95;nan;99408.81;5073154;28;20044;-69
2024/01/04 07:17:43;;;;;;;149.10;53.28;;;;;;;10.75;nan;99409.25;5081001;28;20067;-69
2024/01/04 07:20:13;;;;;;;153.73;55.72;;;;;;;10.74;nan;99409.47;5080016;28;20051;-70
2024/01/04 07:22:43;;;;;;;150.00;55.03;;;;;;;10.64;nan;99407.03;5080047;28;20052;-70
2024/01/04 07:25:12;;;;;;;153.10;56.03;;;;;;;10.48;nan;99396.56;5078549;28;20060;-71
2024/01/04 07:27:41;;;;;;;146.40;56.17;;;;;;;10.65;nan;99394.63;5071628;28;20052;-68
2024/01/04 07:30:13;;;;;;;155.25;54.20;;;;;;;10.76;nan;99392.38;5097040;28;20513;-68
2024/01/04 07:32:43;;;;;;;151.98;54.47;;;;;;;10.31;nan;99379.13;5095624;28;20455;-68
2024/01/04 07:35:15;;;;;;;152.00;57.13;;;;;;;10.48;nan;99385.13;5075442;28;20104;-67
2024/01/04 07:37:48;;;;;;;148.57;55.28;;;;;;;10.58;nan;99380.41;5064483;28;20728;-67
2024/01/04 07:40:19;;;;;;;152.98;58.08;;;;;;;10.82;nan;99367.84;5090201;28;20048;-67
2024/01/04 07:42:49;;;;;;;149.13;56.03;;;;;;;10.87;nan;99362.00;5112732;27;20052;-67
2024/01/04 07:45:18;;;;;;;147.73;55.25;;;;;;;10.84;nan;99364.19;5078143;28;20463;-71
2024/01/04 07:47:51;;;;;;;157.48;57.45;;;;;;;11.11;nan;99359.13;5080780;28;20055;-67
2024/01/04 07:50:21;;;;;;;146.88;56.28;;;;;;;11.06;nan;99352.72;5077414;28;20131;-67
2024/01/04 07:52:50;;;;;;;149.80;55.15;;;;;;;10.80;nan;99350.44;5079906;28;20622;-65
2024/01/04 07:55:20;;;;;;;149.85;55.83;;;;;;;11.20;nan;99339.47;5079529;28;20151;-68
2024/01/04 07:57:50;;;;;;;150.05;53.83;;;;;;;11.48;nan;99350.31;5078610;28;20044;-68
2024/01/04 08:00:19;;;;;;;150.20;56.75;;;;;;;11.59;nan;99343.75;5079385;28;20056;-67
2024/01/04 08:02:49;;;;;;;143.63;55.30;;;;;;;11.35;nan;99336.84;5078903;28;20040;-68
2024/01/04 08:05:18;;;;;;;148.95;55.28;;;;;;;11.17;nan;99333.72;5077268;28;20133;-69
2024/01/04 08:07:48;;;;;;;146.25;56.42;;;;;;;11.48;nan;99322.97;5078173;28;20422;-68
2024/01/04 08:10:17;;;;;;;140.43;55.75;;;;;;;11.49;nan;99327.25;5081653;28;20549;-68
2024/01/04 08:12:47;;;;;;;143.27;52.25;;;;;;;11.77;nan;99316.88;5078249;28;20044;-68
2024/01/04 08:15:17;;;;;;;141.68;53.13;;;;;;;12.10;nan;99320.72;5077563;28;20097;-68
2024/01/04 08:17:47;;;;;;;131.38;55.45;;;;;;;11.92;nan;99317.66;5081042;28;20163;-67
2024/01/04 08:20:18;;;;;;;139.02;53.90;;;;;;;11.94;nan;99315.63;5073966;28;20051;-67
2024/01/04 08:22:48;;;;;;;142.13;52.40;;;;;;;12.05;nan;99315.16;5080243;28;20101;-67
2024/01/04 08:25:17;;;;;;;140.63;52.72;;;;;;;11.94;nan;99313.81;5078383;28;20777;-67
2024/01/04 08:27:46;;;;;;;128.20;50.15;;;;;;;11.92;nan;99296.41;5078699;28;20134;-68
2024/01/04 08:30:16;;;;;;;123.72;50.65;;;;;;;11.65;nan;99288.09;5079564;28;20063;-68
2024/01/04 08:32:45;;;;;;;128.93;49.78;;;;;;;11.62;nan;99282.34;5082354;28;20072;-67
2024/01/04 08:35:17;;;;;;;119.70;48.35;;;;;;;11.85;nan;99279.59;5079798;28;20109;-66
2024/01/04 08:37:47;;;;;;;121.80;49.35;;;;;;;11.87;nan;99266.94;5082743;28;20052;-67
2024/01/04 08:40:17;;;;;;;133.15;51.47;;;;;;;11.44;nan;99271.28;5080466;28;20040;-67
2024/01/04 08:42:47;;;;;;;122.93;47.92;;;;;;;11.49;nan;99264.44;5080913;28;20098;-67
2024/01/04 08:45:16;;;;;;;126.13;49.17;;;;;;;11.53;nan;99260.41;5078784;28;20044;-67
2024/01/04 08:47:46;;;;;;;129.10;48.28;;;;;;;11.55;nan;99266.31;5079099;28;20058;-68
2024/01/04 08:50:16;;;;;;;122.15;48.03;;;;;;;11.52;nan;99257.94;5080179;28;20075;-67
2024/01/04 08:52:45;;;;;;;115.10;46.53;;;;;;;11.99;nan;99263.63;5082322;28;20048;-63
2024/01/04 08:55:15;;;;;;;129.55;47.75;;;;;;;11.69;nan;99259.34;5081600;28;20128;-66
2024/01/04 08:57:45;;;;;;;128.95;48.28;;;;;;;11.76;nan;99254.19;5081118;28;20044;-66
2024/01/04 09:00:14;;;;;;;116.03;48.70;;;;;;;11.57;nan;99245.75;5081118;28;20056;-67
2024/01/04 09:02:46;;;;;;;113.40;46.22;;;;;;;11.83;nan;99250.59;5082781;28;20132;-67
2024/01/04 09:05:15;;;;;;;122.20;47.92;;;;;;;11.62;nan;99258.47;5079384;28;20048;-68
2024/01/04 09:07:45;;;;;;;124.90;50.65;;;;;;;11.86;nan;99249.41;5080716;28;20051;-67
2024/01/04 09:10:14;;;;;;;114.47;45.40;;;;;;;11.84;nan;99249.59;5086286;28;20113;-66
2024/01/04 09:12:44;;;;;;;121.40;48.05;;;;;;;11.61;nan;99246.22;5085855;28;20051;-66
2024/01/04 09:15:14;;;;;;;124.93;49.22;;;;;;;11.64;nan;99246.66;5082929;28;20052;-66
2024/01/04 09:17:44;;;;;;;119.03;47.70;;;;;;;12.01;nan;99250.16;5082978;28;20062;-67
2024/01/04 09:20:13;;;;;;;121.13;48.95;;;;;;;11.84;nan;99244.28;5082745;28;20109;-68
2024/01/04 09:22:43;;;;;;;118.68;47.70;;;;;;;11.59;nan;99241.09;5086028;28;20052;-67
2024/01/04 09:25:12;;;;;;;119.00;47.05;;;;;;;11.65;nan;99239.50;5083816;28;20109;-67
2024/01/04 09:27:42;;;;;;;124.40;47.13;;;;;;;11.49;nan;99237.91;5072980;28;20473;-67
2024/01/04 09:30:11;;;;;;;125.30;48.00;;;;;;;11.60;nan;99242.72;5083573;28;20044;-67
2024/01/04 09:32:43;;;;;;;133.77;50.15;;;;;;;11.52;nan;99234.88;5072155;28;20040;-66
2024/01/04 09:35:12;;;;;;;120.85;48.05;;;;;;;11.63;nan;99231.75;5086032;28;20044;-66
2024/01/04 09:37:42;;;;;;;122.10;49.58;;;;;;;11.77;nan;99222.16;5079818;28;20387;-67
2024/01/04 09:40:12;;;;;;;117.60;47.50;;;;;;;11.94;nan;99220.09;5083500;28;20043;-67
2024/01/04 09:42:43;;;;;;;121.22;49.95;;;;;;;11.92;nan;99227.41;5086428;28;20048;-66
2024/01/04 09:45:16;;;;;;;124.13;49.42;;;;;;;11.67;nan;99217.13;5085802;28;20838;-66
2024/01/04 09:47:50;;;;;;;;;;;;;;;11.75;nan;99212.72;5088266;28;20055;-63
2024/01/04 09:50:20;;;;;;;;;;;;;;;11.49;nan;99206.09;5086003;28;19924;-67
2024/01/04 09:52:56;;;;;;;123.60;47.70;;;;;;;11.64;nan;99198.91;5084773;28;19928;-66
2024/01/04 09:55:25;;;;;;;122.82;47.42;;;;;;;11.55;nan;99200.00;5087337;28;20051;-67
2024/01/04 09:57:56;;;;;;;129.68;51.97;;;;;;;11.55;nan;99197.34;5085037;28;20110;-67
2024/01/04 10:00:27;;;;;;;125.32;51.00;;;;;;;11.86;nan;99196.31;5086734;28;20054;-67
2024/01/04 10:03:03;;;;;;;130.55;50.75;;;;;;;11.72;nan;99195.34;5087210;27;20129;-67
2024/01/04 10:05:35;;;;;;;129.63;51.85;;;;;;;11.72;nan;99190.06;5085484;28;20400;-67
2024/01/04 10:08:33;;;;;;;130.70;50.65;;;;;;;11.99;nan;99191.16;5086565;28;20044;-70
2024/01/04 10:11:16;;;;;;;122.75;50.40;;;;;;;11.90;nan;99190.44;5087507;28;20452;-67
2024/01/04 10:13:47;;;;;;;133.52;51.20;;;;;;;11.97;nan;99188.66;5083956;28;20109;-67
2024/01/04 10:16:18;;;;;;;128.77;51.05;;;;;;;11.96;nan;99194.97;5090725;28;20044;-67
2024/01/04 10:18:48;;;;;;;122.82;49.70;;;;;;;11.87;nan;99192.63;5091983;28;20475;-67
2024/01/04 10:21:18;;;;;;;123.75;50.70;;;;;;;11.75;nan;99200.28;5088051;28;20127;-67
2024/01/04 10:23:57;;;;;;;139.48;51.38;;;;;;;11.96;nan;99186.19;5083664;28;20061;-67
2024/01/04 10:26:27;;;;;;;139.18;50.90;;;;;;;11.86;nan;99191.81;5086201;28;20055;-66
2024/01/04 10:28:59;;;;;;;131.07;52.88;;;;;;;11.82;nan;99181.75;5088805;28;20044;-66
2024/01/04 10:31:29;;;;;;;131.55;53.58;;;;;;;11.75;nan;99189.66;5082749;28;20055;-66
2024/01/04 10:33:59;;;;;;;129.02;54.25;;;;;;;11.67;nan;99187.94;5081011;28;20052;-68
2024/01/04 10:36:29;;;;;;;164.57;62.83;;;;;;;11.82;nan;99187.91;5080680;28;20113;-69
2024/01/04 10:39:00;;;;;;;157.63;65.90;;;;;;;11.73;nan;99181.06;5084308;28;20052;-67
2024/01/04 10:41:30;;;;;;;160.70;69.95;;;;;;;11.71;nan;99173.28;5083285;28;20040;-68
2024/01/04 10:44:07;;;;;;;175.85;70.75;;;;;;;11.52;nan;99175.69;5078473;28;20075;-68
2024/01/04 10:46:37;;;;;;;177.23;71.32;;;;;;;11.50;nan;99183.88;5082934;28;20592;-67
2024/01/04 10:49:07;;;;;;;175.07;71.75;;;;;;;11.41;nan;99181.50;5081983;28;20054;-67
2024/01/04 10:51:41;;;;;;;178.13;73.87;;;;;;;11.44;nan;99186.41;5063431;28;20051;-68
2024/01/04 10:54:12;;;;;;;189.15;76.43;;;;;;;11.42;nan;99181.28;5080989;28;20273;-68
2024/01/04 10:56:42;;;;;;;183.25;72.18;;;;;;;11.49;nan;99176.09;5083593;28;20051;-67
2024/01/04 10:59:16;;;;;;;186.25;76.60;;;;;;;11.43;nan;99179.47;5081979;28;20051;-68
2024/01/04 11:01:46;;;;;;;195.48;75.32;;;;;;;11.32;nan;99178.13;5081436;28;20149;-68
2024/01/04 11:04:17;;;;;;;189.57;76.30;;;;;;;11.29;nan;99181.13;5074104;28;20048;-68
2024/01/04 11:06:47;;;;;;;182.50;75.47;;;;;;;11.16;nan;99184.44;5075686;28;20052;-67
2024/01/04 11:09:21;;;;;;;180.75;74.53;;;;;;;11.15;nan;99180.13;5081545;28;20650;-67
2024/01/04 11:11:52;;;;;;;181.32;76.20;;;;;;;11.03;nan;99176.31;5081749;28;20052;-67
2024/01/04 11:14:23;;;;;;;185.65;76.60;;;;;;;10.92;nan;99187.41;5078687;28;20055;-67
2024/01/04 11:17:24;;;;;;;190.18;75.07;;;;;;;10.91;nan;99180.44;5072044;28;20393;-68
2024/01/04 11:19:59;;;;;;;182.35;75.28;;;;;;;10.85;nan;99183.81;5081553;28;20198;-67
2024/01/04 11:22:39;;;;;;;188.77;74.45;;;;;;;10.87;nan;99184.47;5077329;28;20060;-67
2024/01/04 11:25:40;;;;;;;184.30;74.55;;;;;;;10.81;nan;99182.53;5080039;28;20036;-67
2024/01/04 11:28:11;;;;;;;171.32;69.47;;;;;;;10.77;nan;99189.19;5080729;28;20115;-67
2024/01/04 11:30:44;;;;;;;159.48;64.63;;;;;;;10.71;nan;99182.78;5080305;28;20052;-67
2024/01/04 11:33:14;;;;;;;162.77;68.70;;;;;;;10.62;nan;99186.53;5082376;28;20089;-67
2024/01/04 11:35:48;;;;;;;163.43;63.63;;;;;;;10.60;nan;99190.38;5082670;28;20063;-67
2024/01/04 11:38:32;;;;;;;156.25;63.90;;;;;;;10.56;nan;99192.56;5089487;28;20409;-67
2024/01/04 11:41:02;;;;;;;144.35;58.53;;;;;;;10.39;nan;99183.13;5080836;28;20048;-67
2024/01/04 11:43:39;;;;;;;147.80;58.90;;;;;;;10.27;nan;99190.66;5081258;28;20055;-67
2024/01/04 11:46:22;;;;;;;133.20;54.28;;;;;;;10.21;nan;99190.56;5081092;28;20139;-67